Time;durP1;ratioP1;P1;durP2;ratioP2;P2;SDS_P1;SDS_P2;PMS_P1;PMS_P2;Temp;Humidity;BMP_temperature;BMP_pressure;BME280_temperature;BME280_humidity;BME280_pressure;Samples;Min_cycle;Max_cycle;Signal;HPM_P1;HPM_P2
2021/05/06 00:00:04;;;;;;;6.43;5.77;;;9.50;74.30;;;;;;5074689;28;20523;-66
2021/05/06 00:02:45;;;;;;;8.93;5.83;;;9.40;73.30;;;;;;5074356;28;20445;-66
2021/05/06 00:05:35;;;;;;;6.43;5.50;;;9.30;73.40;;;;;;5074367;28;20487;-66
2021/05/06 00:08:14;;;;;;;9.53;5.20;;;9.30;73.90;;;;;;5074272;28;20461;-66
2021/05/06 00:11:08;;;;;;;7.07;6.37;;;9.20;74.40;;;;;;5073889;28;20479;-66
2021/05/06 00:30:28;;;;;;;8.03;6.13;;;9.00;74.00;;;;;;5073828;28;20489;-66
2021/05/06 00:32:56;;;;;;;7.10;5.67;;;8.90;74.40;;;;;;5073955;28;20434;-66
2021/05/06 00:35:22;;;;;;;8.43;6.50;;;8.80;74.60;;;;;;5073496;28;20488;-66
2021/05/06 00:37:57;;;;;;;10.47;7.27;;;8.80;74.60;;;;;;5073789;28;20444;-66
2021/05/06 00:40:29;;;;;;;8.90;6.97;;;8.70;75.10;;;;;;5073620;28;20977;-65
2021/05/06 00:43:25;;;;;;;8.83;7.30;;;8.60;75.40;;;;;;5073608;28;20483;-66
2021/05/06 00:54:25;;;;;;;8.37;7.57;;;8.60;77.00;;;;;;5073942;28;20404;-66
2021/05/06 00:56:57;;;;;;;9.10;8.20;;;8.60;77.20;;;;;;5073485;28;20465;-66
2021/05/06 00:59:39;;;;;;;7.53;6.93;;;8.50;77.30;;;;;;5073599;28;20433;-66
2021/05/06 01:02:20;;;;;;;8.70;7.10;;;8.50;77.30;;;;;;5073737;28;20421;-66
2021/05/06 01:04:51;;;;;;;13.70;8.83;;;8.50;76.80;;;;;;5073491;28;20434;-66
2021/05/06 01:07:36;;;;;;;9.97;8.50;;;8.50;77.00;;;;;;5073503;28;20839;-66
2021/05/06 01:10:14;;;;;;;8.50;7.70;;;8.40;77.10;;;;;;5073407;28;20482;-66
2021/05/06 01:12:42;;;;;;;8.83;7.77;;;8.40;77.00;;;;;;5073603;28;20455;-66
2021/05/06 01:15:09;;;;;;;8.60;7.43;;;8.40;77.70;;;;;;5073471;28;20461;-66
2021/05/06 01:17:36;;;;;;;8.80;7.30;;;8.40;78.00;;;;;;5073309;28;20445;-66
2021/05/06 01:20:04;;;;;;;8.37;6.57;;;8.50;78.70;;;;;;5073020;28;20989;-66
2021/05/06 01:22:31;;;;;;;6.70;5.87;;;8.40;77.90;;;;;;5073298;28;20475;-66
2021/05/06 01:24:59;;;;;;;9.60;5.93;;;8.40;78.40;;;;;;5073272;28;20536;-66
2021/05/06 01:27:32;;;;;;;8.00;5.50;;;8.40;78.00;;;;;;5073256;28;20440;-66
2021/05/06 01:30:06;;;;;;;10.83;6.33;;;8.40;78.20;;;;;;5073348;28;20493;-66
2021/05/06 01:32:34;;;;;;;6.53;5.03;;;8.40;78.90;;;;;;5073261;28;20438;-66
2021/05/06 01:35:04;;;;;;;5.80;5.20;;;8.50;79.20;;;;;;5073645;28;20456;-66
2021/05/06 01:37:35;;;;;;;6.87;5.67;;;8.50;78.80;;;;;;5073766;28;20440;-65
2021/05/06 01:40:24;;;;;;;6.07;4.90;;;8.50;78.10;;;;;;5073837;28;20495;-66
2021/05/06 01:42:51;;;;;;;6.73;6.03;;;8.50;78.10;;;;;;5077128;28;20433;-66
2021/05/06 01:45:45;;;;;;;8.03;5.73;;;8.60;78.20;;;;;;5077093;28;20480;-66
2021/05/06 01:48:21;;;;;;;5.90;4.77;;;8.50;77.80;;;;;;5077040;28;20416;-66
2021/05/06 01:59:07;;;;;;;4.30;3.90;;;8.60;77.50;;;;;;5075608;28;20408;-66
2021/05/06 02:01:34;;;;;;;9.03;5.10;;;8.60;77.20;;;;;;5075453;28;20469;-66
2021/05/06 02:04:00;;;;;;;5.10;4.60;;;8.50;76.90;;;;;;5075467;28;20452;-66
2021/05/06 02:06:26;;;;;;;4.57;4.17;;;8.50;77.10;;;;;;5075104;28;20452;-66
2021/05/06 02:08:53;;;;;;;6.17;5.27;;;8.50;77.00;;;;;;5075353;28;20826;-66
2021/05/06 02:11:21;;;;;;;7.93;3.87;;;8.50;77.10;;;;;;5075266;28;20460;-66
2021/05/06 02:13:48;;;;;;;6.60;4.13;;;8.40;77.50;;;;;;5075302;28;20804;-66
2021/05/06 02:16:18;;;;;;;4.57;4.10;;;8.40;78.10;;;;;;5075438;28;20480;-66
2021/05/06 02:18:45;;;;;;;8.93;4.33;;;8.40;78.30;;;;;;5075257;28;20432;-66
2021/05/06 02:21:16;;;;;;;8.83;5.00;;;8.30;78.00;;;;;;5075149;28;20470;-66
2021/05/06 02:23:42;;;;;;;8.10;4.87;;;8.30;78.30;;;;;;5075238;28;20475;-66
2021/05/06 02:26:10;;;;;;;9.33;4.00;;;8.30;78.70;;;;;;5075101;28;20451;-66
2021/05/06 02:28:36;;;;;;;3.80;2.80;;;8.30;78.90;;;;;;5075076;28;20440;-66
2021/05/06 02:31:02;;;;;;;5.53;3.00;;;8.30;79.20;;;;;;5074949;28;20469;-66
2021/05/06 02:33:28;;;;;;;4.60;2.57;;;8.20;79.00;;;;;;5075210;28;20444;-66
2021/05/06 02:35:55;;;;;;;7.50;2.43;;;8.10;80.00;;;;;;5074541;28;20843;-66
2021/05/06 02:38:21;;;;;;;6.67;2.13;;;7.80;82.00;;;;;;5074904;28;20453;-66
2021/05/06 02:40:47;;;;;;;3.67;1.60;;;7.70;82.90;;;;;;5074831;28;20468;-66
2021/05/06 02:43:14;;;;;;;4.97;2.37;;;7.60;82.90;;;;;;5074817;28;20441;-65
2021/05/06 02:45:40;;;;;;;3.53;2.53;;;7.40;83.40;;;;;;5074808;28;20436;-65
2021/05/06 02:48:07;;;;;;;3.30;2.50;;;7.40;85.40;;;;;;5074758;28;20448;-65
2021/05/06 02:50:33;;;;;;;5.80;2.00;;;7.30;85.50;;;;;;5055435;28;555085;-66
2021/05/06 02:53:02;;;;;;;3.50;2.57;;;7.30;86.30;;;;;;5075855;28;20201;-65
2021/05/06 02:55:38;;;;;;;2.67;2.03;;;7.30;86.40;;;;;;5075406;28;20527;-65
2021/05/06 02:58:07;;;;;;;2.87;2.13;;;7.30;86.10;;;;;;5075750;28;20482;-65
2021/05/06 03:03:19;;;;;;;5.10;2.83;;;7.20;87.20;;;;;;5075451;28;20562;-66
2021/05/06 03:05:50;;;;;;;3.60;2.33;;;7.20;87.60;;;;;;5075312;28;20976;-67
2021/05/06 03:08:19;;;;;;;5.23;2.73;;;7.20;87.90;;;;;;5075618;28;20437;-66
2021/05/06 03:10:57;;;;;;;8.33;3.63;;;7.20;88.30;;;;;;5075457;28;20892;-66
2021/05/06 03:14:03;;;;;;;3.57;1.50;;;7.20;87.70;;;;;;5075457;28;20443;-66
2021/05/06 03:24:33;;;;;;;5.60;2.10;;;7.10;88.30;;;;;;5075099;28;20396;-66
2021/05/06 03:27:00;;;;;;;7.40;2.30;;;7.20;88.40;;;;;;5075164;28;20486;-66
2021/05/06 03:29:31;;;;;;;8.03;2.43;;;7.30;88.00;;;;;;5075124;28;20441;-66
2021/05/06 03:32:09;;;;;;;7.37;2.60;;;7.20;87.90;;;;;;5074701;28;20461;-66
2021/05/06 03:34:49;;;;;;;6.00;3.20;;;7.30;87.90;;;;;;5075118;28;20482;-66
2021/05/06 03:42:49;;;;;;;7.33;2.17;;;7.30;87.40;;;;;;5074909;28;20404;-66
2021/05/06 03:45:48;;;;;;;3.60;2.60;;;7.20;87.20;;;;;;5074855;28;20433;-66
2021/05/06 04:18:34;;;;;;;6.27;3.30;;;7.20;87.60;;;;;;5074125;28;20764;-65
2021/05/06 04:26:36;;;;;;;6.13;2.50;;;7.30;88.30;;;;;;5074241;28;20400;-65
2021/05/06 04:37:17;;;;;;;6.13;3.17;;;7.30;87.50;;;;;;5073993;28;20492;-65
2021/05/06 04:39:50;;;;;;;5.30;2.80;;;7.30;87.90;;;;;;5073778;28;20437;-66
2021/05/06 04:55:55;;;;;;;4.87;3.77;;;7.30;87.30;;;;;;5073585;28;21077;-65
2021/05/06 04:58:54;;;;;;;5.80;4.80;;;7.30;87.20;;;;;;5073548;28;20543;-65
2021/05/06 05:04:09;;;;;;;7.77;4.47;;;7.20;87.80;;;;;;5073547;28;20484;-65
2021/05/06 05:06:38;;;;;;;6.93;4.37;;;7.20;87.80;;;;;;5073468;28;20429;-65
2021/05/06 05:09:19;;;;;;;7.30;4.80;;;7.30;88.20;;;;;;5073400;28;20444;-65
2021/05/06 05:11:51;;;;;;;5.90;3.90;;;7.30;88.00;;;;;;5073328;28;20499;-65
2021/05/06 05:20:11;;;;;;;5.90;4.27;;;7.50;86.70;;;;;;5073696;28;20408;-65
2021/05/06 05:25:28;;;;;;;4.73;3.80;;;7.50;86.90;;;;;;5073620;28;20416;-65
2021/05/06 05:27:56;;;;;;;7.13;4.67;;;7.50;86.70;;;;;;5073218;28;20432;-65
2021/05/06 05:30:24;;;;;;;8.17;4.97;;;7.50;87.20;;;;;;5073173;28;20472;-66
2021/05/06 05:32:51;;;;;;;6.80;4.20;;;7.60;87.20;;;;;;5072976;28;20448;-65
2021/05/06 05:35:27;;;;;;;7.33;4.80;;;7.60;87.20;;;;;;5073197;28;20444;-65
2021/05/06 05:38:02;;;;;;;5.70;4.47;;;7.60;87.20;;;;;;5072904;28;20840;-65
2021/05/06 05:40:35;;;;;;;7.47;4.10;;;7.70;87.20;;;;;;5073159;28;20460;-65
2021/05/06 05:43:06;;;;;;;4.87;4.00;;;7.80;86.70;;;;;;5072882;28;20429;-65
2021/05/06 05:56:29;;;;;;;7.23;5.57;;;7.90;86.50;;;;;;5072979;28;20977;-65
2021/05/06 05:58:55;;;;;;;5.60;3.83;;;7.90;86.20;;;;;;5072633;28;20444;-65
2021/05/06 06:01:24;;;;;;;6.30;4.20;;;7.90;86.00;;;;;;5073654;28;20921;-65
2021/05/06 06:03:50;;;;;;;7.37;4.40;;;8.00;86.30;;;;;;5072932;28;20452;-65
2021/05/06 06:06:16;;;;;;;4.67;4.10;;;8.00;86.40;;;;;;5072852;28;20878;-65
2021/05/06 06:08:43;;;;;;;4.20;3.80;;;8.10;86.30;;;;;;5072821;28;20444;-65
2021/05/06 06:11:09;;;;;;;5.33;3.23;;;8.20;85.30;;;;;;5072705;28;20464;-65
2021/05/06 06:13:36;;;;;;;6.40;4.00;;;8.30;85.10;;;;;;5072818;28;20773;-65
2021/05/06 06:16:08;;;;;;;5.00;3.70;;;8.40;85.00;;;;;;5072672;28;20583;-65
2021/05/06 06:18:40;;;;;;;7.70;4.23;;;8.50;84.30;;;;;;5072750;28;20425;-66
2021/05/06 06:21:10;;;;;;;4.47;3.87;;;8.50;83.00;;;;;;5072649;28;20482;-65
2021/05/06 06:23:37;;;;;;;6.57;4.07;;;8.60;83.50;;;;;;5072742;28;20512;-65
2021/05/06 06:26:03;;;;;;;5.27;3.57;;;8.60;83.40;;;;;;5073439;28;20514;-65
2021/05/06 06:28:36;;;;;;;5.20;4.37;;;8.70;83.20;;;;;;5076383;28;20453;-65
2021/05/06 06:31:03;;;;;;;5.07;4.13;;;8.80;82.40;;;;;;5076176;28;20832;-65
2021/05/06 06:33:30;;;;;;;8.43;4.20;;;8.90;82.50;;;;;;5076101;28;20457;-65
2021/05/06 06:35:56;;;;;;;6.43;3.73;;;8.90;82.30;;;;;;5075732;28;20843;-65
2021/05/06 06:38:22;;;;;;;8.87;3.83;;;8.90;81.80;;;;;;5075989;28;20459;-65
2021/05/06 06:40:48;;;;;;;5.37;4.10;;;9.00;81.10;;;;;;5075863;28;20468;-65
2021/05/06 06:43:15;;;;;;;4.87;4.03;;;8.90;81.90;;;;;;5076051;28;20455;-65
2021/05/06 06:45:41;;;;;;;8.27;4.13;;;8.90;80.70;;;;;;5075713;28;20918;-66
2021/05/06 06:48:09;;;;;;;5.53;4.70;;;8.90;81.60;;;;;;5075564;28;21013;-66
2021/05/06 06:50:35;;;;;;;8.53;4.63;;;8.90;81.50;;;;;;5075884;28;20866;-66
2021/05/06 06:53:01;;;;;;;6.80;4.90;;;9.00;81.40;;;;;;5075864;28;20453;-65
2021/05/06 06:55:28;;;;;;;8.43;5.53;;;9.10;81.00;;;;;;5075886;28;20447;-68
2021/05/06 06:58:07;;;;;;;6.37;4.80;;;9.20;80.90;;;;;;5075642;28;20473;-68
2021/05/06 07:00:33;;;;;;;5.87;4.77;;;9.20;80.20;;;;;;5075587;28;20510;-67
2021/05/06 07:02:59;;;;;;;9.90;5.13;;;9.20;79.70;;;;;;5075335;28;21015;-67
2021/05/06 07:05:26;;;;;;;5.70;4.50;;;9.40;80.60;;;;;;5075554;28;20505;-67
2021/05/06 07:07:53;;;;;;;8.03;5.40;;;9.50;80.00;;;;;;5075488;28;20434;-68
2021/05/06 07:10:19;;;;;;;5.83;4.73;;;9.60;79.80;;;;;;5075411;28;20471;-68
2021/05/06 07:12:45;;;;;;;10.27;4.90;;;9.70;78.20;;;;;;5075419;28;20429;-68
2021/05/06 07:15:13;;;;;;;4.93;4.43;;;9.80;77.90;;;;;;5075996;28;20429;-68
2021/05/06 07:17:39;;;;;;;8.90;4.70;;;9.90;77.30;;;;;;5074960;28;20480;-67
2021/05/06 07:20:06;;;;;;;5.30;4.33;;;10.00;76.00;;;;;;5075231;28;20464;-68
2021/05/06 07:22:33;;;;;;;4.60;4.00;;;10.20;76.30;;;;;;5075226;28;20486;-68
2021/05/06 07:25:00;;;;;;;5.30;3.97;;;10.10;74.60;;;;;;5075214;28;20818;-68
2021/05/06 07:27:27;;;;;;;6.13;5.50;;;9.90;74.90;;;;;;5074809;28;20452;-67
2021/05/06 07:29:53;;;;;;;7.00;3.60;;;9.80;76.50;;;;;;5075014;28;20487;-67
2021/05/06 07:32:20;;;;;;;7.07;5.37;;;9.90;77.50;;;;;;5075120;28;20806;-67
2021/05/06 07:34:46;;;;;;;5.70;4.83;;;9.90;76.60;;;;;;5074726;28;20428;-68
2021/05/06 07:37:12;;;;;;;9.93;4.70;;;10.10;74.90;;;;;;5074347;28;20467;-67
2021/05/06 07:39:39;;;;;;;5.03;4.60;;;10.20;73.30;;;;;;5074387;28;20487;-67
2021/05/06 07:42:06;;;;;;;7.00;4.43;;;10.40;71.30;;;;;;5074809;28;20446;-67
2021/05/06 07:44:32;;;;;;;6.93;4.97;;;10.40;70.30;;;;;;5074947;28;20444;-67
2021/05/06 07:47:10;;;;;;;5.23;4.63;;;10.20;70.20;;;;;;5075157;28;20923;-67
2021/05/06 07:49:37;;;;;;;5.50;4.40;;;10.20;71.40;;;;;;5076393;28;20522;-67
2021/05/06 07:52:03;;;;;;;5.20;4.57;;;10.10;72.00;;;;;;5075829;28;20436;-68
2021/05/06 07:54:31;;;;;;;5.73;4.47;;;10.10;71.80;;;;;;5074875;28;20448;-67
2021/05/06 07:56:58;;;;;;;8.47;5.77;;;10.20;72.50;;;;;;5074675;28;21043;-67
2021/05/06 07:59:25;;;;;;;5.40;4.47;;;10.10;69.30;;;;;;5074930;28;20444;-67
2021/05/06 08:01:52;;;;;;;4.80;4.20;;;10.30;71.50;;;;;;5074670;28;20522;-67
2021/05/06 08:04:20;;;;;;;7.90;3.73;;;10.50;71.40;;;;;;5074942;28;20441;-67
2021/05/06 08:06:46;;;;;;;5.60;3.30;;;10.60;70.10;;;;;;5074337;28;20927;-68
2021/05/06 08:09:13;;;;;;;6.80;3.90;;;10.90;71.40;;;;;;5074555;28;20494;-68
2021/05/06 08:11:39;;;;;;;4.07;2.80;;;11.00;70.00;;;;;;5074472;28;20473;-67
2021/05/06 08:14:07;;;;;;;3.60;3.30;;;11.20;67.20;;;;;;5073934;28;20441;-67
2021/05/06 08:16:33;;;;;;;4.87;2.80;;;11.30;66.00;;;;;;5073832;28;20485;-67
2021/05/06 08:18:59;;;;;;;10.00;3.40;;;11.40;64.50;;;;;;5074135;28;20440;-67
2021/05/06 08:21:29;;;;;;;3.83;3.40;;;11.30;63.90;;;;;;5074001;28;20460;-67
2021/05/06 08:23:55;;;;;;;4.20;3.20;;;11.40;65.00;;;;;;5073910;28;20449;-67
2021/05/06 08:26:21;;;;;;;3.70;3.40;;;11.40;63.50;;;;;;5074084;28;20409;-68
2021/05/06 08:28:48;;;;;;;3.80;3.23;;;11.40;63.40;;;;;;5073742;28;20426;-68
2021/05/06 08:31:15;;;;;;;5.10;3.47;;;11.50;64.10;;;;;;5073901;28;20464;-68
2021/05/06 08:33:41;;;;;;;5.30;3.40;;;11.70;64.60;;;;;;5073858;28;20424;-68
2021/05/06 08:36:07;;;;;;;4.80;3.03;;;11.90;61.70;;;;;;5073878;28;20469;-68
2021/05/06 08:38:34;;;;;;;5.47;2.90;;;12.00;61.50;;;;;;5073529;28;20487;-68
2021/05/06 08:41:00;;;;;;;7.30;2.97;;;11.80;60.40;;;;;;5073723;28;20493;-68
2021/05/06 08:43:30;;;;;;;4.10;3.10;;;11.70;61.30;;;;;;5073779;28;20459;-68
2021/05/06 08:45:58;;;;;;;5.00;3.20;;;11.90;60.60;;;;;;5073702;28;20452;-68
2021/05/06 08:48:25;;;;;;;4.53;3.17;;;12.00;60.30;;;;;;5073700;28;20491;-66
2021/05/06 08:50:54;;;;;;;4.03;2.53;;;12.00;59.00;;;;;;5073294;28;20472;-66
2021/05/06 08:53:22;;;;;;;4.70;2.70;;;11.90;60.10;;;;;;5073597;28;20441;-66
2021/05/06 08:55:49;;;;;;;5.13;3.43;;;11.90;59.70;;;;;;5073428;28;20506;-66
2021/05/06 08:58:15;;;;;;;2.17;2.07;;;12.00;60.00;;;;;;5073610;28;20433;-65
2021/05/06 09:00:41;;;;;;;3.50;3.00;;;12.30;59.90;;;;;;5073688;28;20469;-65
2021/05/06 09:03:09;;;;;;;2.80;2.50;;;12.60;58.50;;;;;;5073702;28;20413;-66
2021/05/06 09:05:57;;;;;;;3.20;2.80;;;12.60;56.50;;;;;;5073180;28;21016;-66
2021/05/06 09:08:34;;;;;;;4.27;2.50;;;12.90;57.50;;;;;;5072957;28;20448;-66
2021/05/06 09:11:00;;;;;;;4.03;2.30;;;12.90;55.00;;;;;;5073350;28;20468;-66
2021/05/06 09:13:28;;;;;;;3.33;2.30;;;13.00;55.40;;;;;;5074105;28;20433;-69
2021/05/06 09:15:54;;;;;;;4.60;2.50;;;13.20;55.90;;;;;;5073312;28;20449;-68
2021/05/06 09:18:34;;;;;;;2.80;2.13;;;13.50;56.40;;;;;;5073456;28;20429;-68
2021/05/06 09:21:02;;;;;;;3.13;2.30;;;13.60;54.90;;;;;;5073320;28;20464;-68
2021/05/06 09:23:28;;;;;;;2.60;2.40;;;13.60;55.50;;;;;;5073282;28;20451;-68
2021/05/06 09:25:54;;;;;;;4.53;2.13;;;13.90;55.30;;;;;;5073286;28;20467;-68
2021/05/06 09:28:21;;;;;;;2.70;2.10;;;14.00;54.60;;;;;;5073098;28;20808;-68
2021/05/06 09:30:53;;;;;;;5.53;2.13;;;14.30;54.30;;;;;;5073614;28;20495;-68
2021/05/06 09:33:26;;;;;;;4.10;2.20;;;14.60;53.30;;;;;;5073095;28;20937;-68
2021/05/06 09:35:53;;;;;;;4.33;2.30;;;15.00;52.90;;;;;;5073164;28;20452;-68
2021/05/06 09:38:25;;;;;;;3.03;2.40;;;15.50;51.90;;;;;;5073321;28;20435;-68
2021/05/06 09:40:52;;;;;;;2.93;2.20;;;15.50;46.40;;;;;;5072815;28;20492;-68
2021/05/06 09:43:26;;;;;;;4.50;2.60;;;15.60;46.60;;;;;;5073189;28;20429;-68
2021/05/06 09:45:53;;;;;;;3.53;2.47;;;15.60;47.20;;;;;;5072782;28;20918;-68
2021/05/06 09:48:21;;;;;;;2.90;1.83;;;15.30;47.90;;;;;;5073180;28;20436;-68
2021/05/06 09:50:49;;;;;;;3.53;2.13;;;15.10;48.50;;;;;;5072958;28;20575;-68
2021/05/06 09:53:18;;;;;;;2.67;2.10;;;15.00;47.90;;;;;;5073086;28;20441;-68
2021/05/06 09:55:47;;;;;;;2.50;2.30;;;14.90;48.80;;;;;;5073494;28;20432;-68
2021/05/06 09:58:14;;;;;;;3.30;2.70;;;15.20;49.90;;;;;;5073421;28;20484;-68
2021/05/06 10:00:42;;;;;;;2.50;2.10;;;15.50;46.40;;;;;;5073432;28;20472;-68
2021/05/06 10:03:12;;;;;;;3.30;2.17;;;15.90;47.00;;;;;;5077085;28;20479;-68
2021/05/06 10:05:41;;;;;;;3.20;2.20;;;16.20;44.40;;;;;;5077029;28;20445;-68
2021/05/06 10:08:08;;;;;;;3.90;2.10;;;16.20;43.80;;;;;;5077070;28;20520;-68
2021/05/06 10:10:36;;;;;;;1.87;1.37;;;16.10;44.20;;;;;;5076661;28;20478;-68
2021/05/06 10:13:04;;;;;;;3.63;2.00;;;16.10;44.00;;;;;;5076418;28;20919;-68
2021/05/06 10:15:31;;;;;;;5.20;2.40;;;16.30;44.80;;;;;;5076733;28;20440;-68
2021/05/06 10:17:58;;;;;;;5.27;2.40;;;16.60;44.10;;;;;;5076476;28;20493;-68
2021/05/06 10:20:26;;;;;;;2.93;2.03;;;16.90;41.90;;;;;;5076258;28;20460;-68
2021/05/06 10:22:53;;;;;;;2.37;2.17;;;17.20;42.00;;;;;;5076289;28;20456;-68
2021/05/06 10:25:21;;;;;;;3.63;2.20;;;17.40;42.00;;;;;;5076416;28;20578;-68
2021/05/06 10:27:47;;;;;;;2.83;1.93;;;17.10;42.20;;;;;;5076009;28;20935;-69
2021/05/06 10:30:16;;;;;;;3.37;2.30;;;16.80;41.20;;;;;;5076464;28;20479;-68
2021/05/06 10:32:44;;;;;;;4.97;2.00;;;16.20;42.00;;;;;;5075926;28;20838;-68
2021/05/06 10:35:12;;;;;;;2.80;2.07;;;16.00;41.80;;;;;;5076709;28;20543;-68
2021/05/06 10:37:41;;;;;;;3.30;1.90;;;16.00;42.50;;;;;;5076033;28;20537;-68
2021/05/06 10:40:24;;;;;;;1.87;1.77;;;15.90;41.60;;;;;;5076252;28;20480;-68
2021/05/06 10:42:51;;;;;;;4.13;2.13;;;15.70;44.10;;;;;;5076116;28;20507;-68
2021/05/06 10:45:32;;;;;;;2.70;1.90;;;15.60;43.40;;;;;;5076132;28;20471;-68
2021/05/06 10:47:59;;;;;;;3.50;1.97;;;15.60;44.40;;;;;;5076303;28;20437;-68
2021/05/06 10:50:33;;;;;;;2.50;2.30;;;15.60;43.90;;;;;;5075645;28;20464;-68
2021/05/06 10:53:00;;;;;;;3.47;2.23;;;15.50;42.70;;;;;;5076012;28;20429;-69
2021/05/06 10:55:54;;;;;;;3.40;1.67;;;15.70;44.30;;;;;;5075621;28;20869;-68
2021/05/06 10:58:38;;;;;;;3.53;2.47;;;16.40;43.70;;;;;;5040459;28;20618;-69
2021/05/06 11:01:20;;;;;;;3.23;1.80;;;17.30;43.10;;;;;;5076900;28;20860;-69
2021/05/06 11:04:02;;;;;;;2.60;1.97;;;18.30;40.40;;;;;;5077146;28;20444;-68
2021/05/06 11:06:45;;;;;;;2.53;1.90;;;19.30;38.70;;;;;;5076433;28;20440;-68
2021/05/06 11:10:02;;;;;;;2.80;1.90;;;20.20;36.80;;;;;;5076426;28;20532;-68
2021/05/06 11:12:30;;;;;;;2.60;1.70;;;20.90;34.80;;;;;;5075270;28;20425;-68
2021/05/06 11:15:34;;;;;;;1.77;1.67;;;21.50;33.90;;;;;;5075518;28;20450;-68
2021/05/06 11:18:03;;;;;;;2.63;1.90;;;22.00;32.40;;;;;;5075343;28;20996;-68
2021/05/06 11:20:51;;;;;;;2.50;1.50;;;22.00;32.20;;;;;;5075471;28;20472;-69
2021/05/06 11:23:29;;;;;;;4.83;1.67;;;21.50;29.30;;;;;;5075067;28;20464;-69
2021/05/06 11:26:12;;;;;;;1.30;1.20;;;21.10;31.10;;;;;;5075069;28;20440;-69
2021/05/06 11:28:49;;;;;;;2.13;1.93;;;20.70;31.00;;;;;;5075386;28;20839;-69
2021/05/06 11:31:16;;;;;;;2.57;1.57;;;20.30;30.80;;;;;;5074843;28;20461;-69
2021/05/06 11:33:43;;;;;;;2.53;1.80;;;19.80;30.40;;;;;;5075055;28;20911;-69
2021/05/06 11:36:17;;;;;;;2.97;2.00;;;19.60;31.20;;;;;;5074879;28;20433;-69
2021/05/06 11:38:45;;;;;;;1.87;1.70;;;19.60;30.50;;;;;;5075052;28;20508;-69
2021/05/06 11:41:12;;;;;;;4.67;1.83;;;19.70;31.10;;;;;;5074975;28;20464;-69
2021/05/06 11:43:42;;;;;;;5.23;1.47;;;19.80;31.60;;;;;;5075005;28;20519;-69
2021/05/06 11:46:09;;;;;;;1.87;1.30;;;20.00;31.10;;;;;;5074998;28;20502;-69
2021/05/06 11:48:36;;;;;;;4.13;1.70;;;20.30;30.70;;;;;;5074810;28;20487;-68
2021/05/06 11:51:04;;;;;;;2.30;1.40;;;20.50;29.70;;;;;;5074674;28;20479;-68
2021/05/06 11:53:30;;;;;;;1.83;1.50;;;20.60;30.10;;;;;;5074739;28;20457;-69
2021/05/06 11:55:56;;;;;;;3.20;2.03;;;20.60;29.60;;;;;;5074751;28;20482;-69
2021/05/06 11:58:24;;;;;;;2.03;1.70;;;20.60;30.00;;;;;;5074897;28;20480;-69
2021/05/06 12:00:53;;;;;;;1.90;1.70;;;20.50;30.00;;;;;;5074462;28;20554;-69
2021/05/06 12:03:19;;;;;;;2.70;1.80;;;20.40;30.50;;;;;;5074568;28;20457;-69
2021/05/06 12:05:57;;;;;;;3.43;1.83;;;19.90;31.70;;;;;;5074394;28;20432;-69
2021/05/06 12:08:26;;;;;;;4.97;2.00;;;19.80;30.80;;;;;;5074148;28;20937;-69
2021/05/06 12:10:53;;;;;;;2.20;1.50;;;19.70;31.40;;;;;;5074381;28;20472;-68
2021/05/06 12:13:28;;;;;;;2.13;1.60;;;19.60;30.20;;;;;;5074122;28;20421;-69
2021/05/06 12:16:10;;;;;;;2.30;1.63;;;19.50;31.50;;;;;;5074341;28;20451;-69
2021/05/06 12:18:36;;;;;;;2.63;1.70;;;19.30;31.50;;;;;;5074017;28;20429;-69
2021/05/06 12:21:05;;;;;;;2.83;1.20;;;19.40;30.40;;;;;;5074202;28;20472;-68
2021/05/06 12:23:33;;;;;;;3.00;1.57;;;19.40;30.30;;;;;;5073902;28;20429;-69
2021/05/06 12:25:59;;;;;;;1.90;1.50;;;19.70;30.50;;;;;;5074115;28;20445;-69
2021/05/06 12:28:26;;;;;;;2.37;1.20;;;20.00;29.90;;;;;;5074128;28;20507;-69
2021/05/06 12:30:58;;;;;;;3.00;1.80;;;20.10;29.70;;;;;;5073886;28;20526;-69
2021/05/06 12:33:32;;;;;;;2.50;1.63;;;20.30;31.40;;;;;;5073932;28;20429;-69
2021/05/06 12:35:58;;;;;;;1.80;1.40;;;20.00;28.80;;;;;;5073524;28;20967;-69
2021/05/06 12:38:25;;;;;;;4.23;1.70;;;19.90;29.30;;;;;;5073828;28;20840;-69
2021/05/06 12:40:53;;;;;;;2.37;1.63;;;20.10;29.10;;;;;;5073785;28;20467;-69
2021/05/06 12:43:28;;;;;;;5.33;1.70;;;20.60;30.00;;;;;;5073903;28;20449;-69
2021/05/06 12:45:59;;;;;;;3.27;1.73;;;20.90;29.20;;;;;;5073991;28;20443;-69
2021/05/06 12:48:43;;;;;;;3.63;2.27;;;20.90;28.50;;;;;;5073795;28;20451;-69
2021/05/06 12:51:10;;;;;;;1.83;1.60;;;21.00;29.10;;;;;;5073470;28;20477;-69
2021/05/06 12:53:37;;;;;;;1.83;1.57;;;21.00;28.40;;;;;;5074004;28;20892;-69
2021/05/06 12:56:05;;;;;;;2.43;2.00;;;20.80;28.30;;;;;;5073902;28;20449;-69
2021/05/06 12:58:35;;;;;;;2.37;1.33;;;20.80;28.40;;;;;;5073828;28;20533;-69
2021/05/06 13:01:13;;;;;;;2.67;1.50;;;21.10;28.10;;;;;;5074047;28;20453;-69
2021/05/06 13:03:44;;;;;;;5.13;1.53;;;21.40;28.00;;;;;;5073826;28;20823;-69
2021/05/06 13:06:13;;;;;;;4.93;1.63;;;21.50;28.10;;;;;;5074132;28;20441;-69
2021/05/06 13:08:41;;;;;;;2.00;1.83;;;21.50;28.90;;;;;;5074091;28;20498;-69
2021/05/06 13:11:10;;;;;;;7.57;1.53;;;20.90;28.50;;;;;;5074058;28;20813;-69
2021/05/06 13:13:39;;;;;;;2.97;1.63;;;20.60;28.30;;;;;;5073589;28;20440;-69
2021/05/06 13:16:07;;;;;;;1.77;1.63;;;20.60;28.70;;;;;;5073856;28;20452;-69
2021/05/06 13:18:35;;;;;;;2.20;1.30;;;20.50;29.30;;;;;;5073556;28;20477;-68
2021/05/06 13:21:01;;;;;;;2.70;1.77;;;20.40;29.40;;;;;;5073375;28;20464;-69
2021/05/06 13:23:30;;;;;;;2.13;1.70;;;20.10;29.10;;;;;;5074339;28;20432;-68
2021/05/06 13:25:57;;;;;;;2.90;1.80;;;19.70;29.50;;;;;;5073587;28;20429;-68
2021/05/06 13:28:45;;;;;;;4.00;2.20;;;19.50;29.60;;;;;;5073375;28;20911;-69
2021/05/06 13:31:15;;;;;;;2.10;1.33;;;19.10;29.30;;;;;;5073473;28;20486;-68
2021/05/06 13:33:41;;;;;;;2.83;1.87;;;18.90;30.20;;;;;;5073314;28;20424;-68
2021/05/06 13:36:09;;;;;;;1.93;1.63;;;18.80;30.80;;;;;;5074256;28;20486;-69
2021/05/06 13:38:56;;;;;;;3.03;1.57;;;18.60;32.00;;;;;;5077358;28;20582;-68
2021/05/06 13:41:24;;;;;;;2.30;1.43;;;18.60;31.80;;;;;;5077514;28;20513;-68
2021/05/06 13:43:52;;;;;;;3.70;1.30;;;18.50;31.00;;;;;;5077693;28;20452;-69
2021/05/06 13:46:19;;;;;;;1.90;1.40;;;18.30;30.70;;;;;;5077300;28;20814;-68
2021/05/06 13:48:45;;;;;;;3.83;1.50;;;18.30;31.60;;;;;;5076883;28;20911;-68
2021/05/06 13:51:13;;;;;;;2.90;1.30;;;18.30;31.20;;;;;;5076933;28;20895;-68
2021/05/06 13:53:42;;;;;;;3.90;1.50;;;18.30;32.70;;;;;;5077001;28;20791;-68
2021/05/06 13:56:09;;;;;;;2.80;1.30;;;18.20;32.00;;;;;;5076837;28;20490;-68
2021/05/06 13:58:36;;;;;;;5.90;1.70;;;18.10;31.20;;;;;;5076620;28;20460;-68
2021/05/06 14:01:05;;;;;;;1.40;1.30;;;17.80;31.90;;;;;;5077136;28;20461;-68
2021/05/06 14:03:31;;;;;;;4.03;1.80;;;17.50;32.30;;;;;;5076940;28;20802;-68
2021/05/06 14:05:59;;;;;;;2.77;1.50;;;16.90;32.60;;;;;;5076955;28;20483;-68
2021/05/06 14:08:26;;;;;;;2.50;1.67;;;16.40;32.70;;;;;;5076849;28;20479;-68
2021/05/06 14:10:52;;;;;;;2.33;1.60;;;16.50;33.80;;;;;;5076285;28;20465;-67
2021/05/06 14:13:19;;;;;;;2.50;1.70;;;16.30;34.20;;;;;;5076763;28;20444;-68
2021/05/06 14:15:46;;;;;;;2.83;1.63;;;16.10;35.30;;;;;;5077587;28;20531;-68
2021/05/06 14:18:13;;;;;;;2.67;1.70;;;16.00;36.30;;;;;;5076655;28;20467;-68
2021/05/06 14:20:40;;;;;;;4.03;1.73;;;15.80;37.00;;;;;;5076320;28;20449;-68
2021/05/06 14:23:06;;;;;;;4.20;1.83;;;15.80;37.40;;;;;;5076437;28;20449;-68
2021/05/06 14:25:33;;;;;;;2.30;1.57;;;15.80;37.60;;;;;;5076423;28;20520;-68
2021/05/06 14:27:59;;;;;;;2.40;1.23;;;15.50;36.30;;;;;;5076392;28;20441;-68
2021/05/06 14:30:26;;;;;;;2.87;1.40;;;15.40;37.30;;;;;;5076312;28;20471;-67
2021/05/06 14:32:52;;;;;;;2.70;1.67;;;15.30;38.20;;;;;;5076663;28;20456;-68
2021/05/06 14:35:19;;;;;;;3.83;1.80;;;15.30;38.10;;;;;;5076438;28;20457;-67
2021/05/06 14:37:46;;;;;;;2.60;1.47;;;15.30;39.10;;;;;;5075766;28;20958;-68
2021/05/06 14:40:13;;;;;;;2.77;1.60;;;15.30;39.10;;;;;;5076096;28;20894;-68
2021/05/06 14:42:39;;;;;;;4.30;1.83;;;15.40;39.60;;;;;;5075978;28;20846;-68
2021/05/06 14:45:08;;;;;;;2.97;1.30;;;15.50;40.00;;;;;;5075768;28;20486;-68
2021/05/06 14:47:36;;;;;;;3.10;1.70;;;15.50;39.60;;;;;;5075581;28;20524;-68
2021/05/06 14:50:02;;;;;;;2.20;1.53;;;15.60;39.70;;;;;;5075779;28;20480;-68
2021/05/06 14:52:29;;;;;;;2.70;1.60;;;15.60;39.00;;;;;;5075925;28;20440;-68
2021/05/06 14:54:56;;;;;;;1.83;1.60;;;15.60;39.30;;;;;;5075879;28;20453;-68
2021/05/06 14:57:22;;;;;;;3.67;1.60;;;15.60;40.20;;;;;;5075666;28;20476;-68
2021/05/06 14:59:48;;;;;;;4.60;2.27;;;15.60;40.90;;;;;;5075301;28;20931;-68
2021/05/06 15:02:14;;;;;;;4.57;2.00;;;15.50;41.70;;;;;;5075378;28;21019;-68
2021/05/06 15:04:40;;;;;;;4.70;2.00;;;15.40;42.50;;;;;;5075710;28;20444;-68
2021/05/06 15:07:07;;;;;;;3.80;1.93;;;15.30;43.30;;;;;;5075659;28;20462;-68
2021/05/06 15:09:34;;;;;;;3.47;2.00;;;15.30;44.10;;;;;;5075705;28;20884;-69
2021/05/06 15:12:00;;;;;;;2.37;2.17;;;15.20;43.60;;;;;;5075587;28;20837;-69
2021/05/06 15:14:27;;;;;;;3.37;2.10;;;15.20;43.60;;;;;;5075577;28;20539;-69